Orlando International Airport
KMCO : rendu visible

Aérodrome :











RETROUVEZ-NOUS SUR...

 
LOGIN :

S'inscrire | Disclaimer

   EN    FR    IT 

 









Légende :    VFR   VFR Marginal   IFR   IFR Intensif   IFR Très Intensif
Visi : 
Plafond : 
>= 8 km
>= 3000ft
5 à 8 km
1000 à 3000 ft
1500m à 5 km
500 à 1000 ft
800 à 1500m
200 à 500 ft
< 800m
< 200 ft
Symboles :   Orages  Brouillard  Fortes neiges  Fortes précipitations  Vent > 20 kt







- Altitude de l'aérodrome : 96 ft
- Code IATA : MCO


KMCO - Orlando International

DERNIER METAR :
  • 240353Z 08006KT 10SM FEW040 23/18 A3016 RMK AO2 SLP213 T02280178

METARs EXPIRÉS :
  • 240253Z 06009KT 10SM FEW040 24/18 A3017 RMK AO2 SLP214 T02390183 53005
  • 240153Z 06009KT 10SM FEW039 24/18 A3016 RMK AO2 SLP212 T02440183

TAF KMCO
Valide du 24 à 03h jusqu'au 25 à 06h UTC


240245Z 2403/2506 06008KT P6SM FEW040
FM240600 05004KT P6SM SKC
FM241400 07009KT P6SM FEW030
FM241800 07012KT P6SM FEW050
FM250100 07008KT P6SM FEW040
FIR KZMA / Amérique du Nord



MET'MAP, la Météo Aéronautique d'un coup d'oeil ! - Copyright ORBIFLY Décembre 2007 - Disclaimer

ORBIFLY MET'MAP TEAM :

Programmation & Développement : Alexandra Zaïnal
Conception & Développement : Baudouin d'Aumeries
Co-Programmation & Développement : Marc-Olivier Méhu
Soutien technique & logistique : Manuel Goepfert

Contact : metmap@orbifly.com




SOURCES & CREDITS :

   NOAA       Earth
Advisory